Time;durP1;ratioP1;P1;durP2;ratioP2;P2;SDS_P1;SDS_P2;PMS_P1;PMS_P2;Temp;Humidity;BMP_temperature;BMP_pressure;BME280_temperature;BME280_humidity;BME280_pressure;Samples;Min_cycle;Max_cycle;Signal;HPM_P1;HPM_P2
2022/06/10 00:01:32;;;;;;;6.60;2.97;;;;;;;17.56;55.71;98392.47;8350311;28;20562;-75
2022/06/10 00:05:36;;;;;;;8.57;3.10;;;;;;;17.48;56.03;98389.53;8350164;28;20251;-75
2022/06/10 00:09:39;;;;;;;10.07;3.27;;;;;;;17.47;55.88;98387.84;8349909;28;20239;-75
2022/06/10 00:13:47;;;;;;;6.80;3.30;;;;;;;17.41;56.32;98385.63;8349782;28;20232;-75
2022/06/10 00:17:52;;;;;;;5.77;3.17;;;;;;;17.39;56.02;98378.69;8349636;28;20235;-75
2022/06/10 00:21:55;;;;;;;9.57;3.40;;;;;;;17.25;56.66;98389.25;8349593;28;20436;-75
2022/06/10 00:25:58;;;;;;;6.60;3.37;;;;;;;17.18;56.67;98394.03;8349376;28;20235;-75
2022/06/10 00:30:02;;;;;;;6.83;3.23;;;;;;;17.14;56.87;98386.47;8349358;28;20538;-75
2022/06/10 00:34:06;;;;;;;6.67;3.57;;;;;;;17.29;56.63;98397.75;8349326;28;20295;-75
2022/06/10 00:38:09;;;;;;;6.17;3.30;;;;;;;17.16;56.96;98398.53;8349035;28;20236;-76
2022/06/10 00:42:13;;;;;;;6.23;3.57;;;;;;;17.11;57.00;98397.97;8348745;28;20491;-76
2022/06/10 00:46:26;;;;;;;7.43;3.10;;;;;;;17.20;56.78;98397.38;8348739;28;20239;-76
2022/06/10 00:50:32;;;;;;;4.93;3.07;;;;;;;17.15;56.86;98404.72;8348543;28;20243;-75
2022/06/10 00:54:37;;;;;;;5.40;3.67;;;;;;;17.16;56.88;98408.16;8348462;28;20408;-75
2022/06/10 00:58:43;;;;;;;9.77;3.10;;;;;;;17.17;56.78;98407.19;8347821;28;20243;-75
2022/06/10 01:02:46;;;;;;;8.13;3.60;;;;;;;17.21;57.03;98406.09;8348402;28;20254;-76
2022/06/10 01:06:51;;;;;;;6.50;3.53;;;;;;;17.11;57.11;98405.81;8348275;28;20243;-75
2022/06/10 01:11:03;;;;;;;8.60;3.30;;;;;;;17.11;57.22;98407.59;8348253;28;20228;-75
2022/06/10 01:15:14;;;;;;;5.73;3.70;;;;;;;17.05;57.18;98410.63;8348029;28;20559;-76
2022/06/10 01:19:35;;;;;;;4.50;3.30;;;;;;;17.07;57.02;98419.22;8347917;28;20243;-76
2022/06/10 01:24:13;;;;;;;6.83;3.50;;;;;;;16.98;56.99;98418.88;8347650;28;20232;-75
2022/06/10 01:28:23;;;;;;;6.57;3.50;;;;;;;16.81;57.36;98432.97;8347702;28;20282;-76
2022/06/10 01:32:32;;;;;;;8.70;3.40;;;;;;;16.80;57.54;98426.03;8347228;28;20231;-75
2022/06/10 01:36:43;;;;;;;7.13;3.73;;;;;;;16.81;57.65;98430.34;8347478;28;20236;-75
2022/06/10 01:40:52;;;;;;;7.20;3.77;;;;;;;16.85;57.46;98436.28;8347415;28;20532;-76
2022/06/10 01:44:57;;;;;;;8.30;3.73;;;;;;;16.73;57.39;98444.84;8347446;28;20239;-76
2022/06/10 01:49:08;;;;;;;6.77;3.70;;;;;;;16.72;57.69;98441.38;8347270;28;20234;-76
2022/06/10 01:53:13;;;;;;;8.30;4.00;;;;;;;16.73;57.46;98442.22;8347286;28;20433;-76
2022/06/10 01:57:18;;;;;;;7.73;3.83;;;;;;;16.67;57.76;98448.66;8345842;28;20232;-76
2022/06/10 02:01:24;;;;;;;9.43;3.97;;;;;;;16.61;58.06;98443.81;8314266;28;20237;-76
2022/06/10 02:05:31;;;;;;;6.97;3.67;;;;;;;16.66;57.75;98452.22;8281569;28;20521;-75
2022/06/10 02:09:38;;;;;;;6.80;4.10;;;;;;;16.58;57.91;98449.22;8283107;28;20426;-75
2022/06/10 02:13:45;;;;;;;6.40;3.70;;;;;;;16.60;58.05;98457.81;8288355;28;20432;-75
2022/06/10 02:17:50;;;;;;;6.53;3.97;;;;;;;16.46;58.34;98465.66;8288121;28;20264;-76
2022/06/10 02:21:58;;;;;;;5.97;3.97;;;;;;;16.39;58.07;98466.03;8288167;28;20255;-75
2022/06/10 02:26:03;;;;;;;5.33;3.57;;;;;;;16.48;57.99;98472.47;8288006;28;20544;-76
2022/06/10 02:30:10;;;;;;;9.93;4.33;;;;;;;16.41;58.40;98474.63;8287836;28;20487;-76
2022/06/10 02:34:13;;;;;;;14.60;4.20;;;;;;;16.40;58.15;98472.94;8287716;28;20230;-76
2022/06/10 02:38:27;;;;;;;9.37;4.20;;;;;;;16.36;58.13;98473.22;8287489;28;20233;-76
2022/06/10 02:42:35;;;;;;;9.13;4.80;;;;;;;16.36;58.15;98481.91;8319496;28;20236;-76
2022/06/10 02:46:43;;;;;;;7.10;4.17;;;;;;;16.34;58.48;98483.78;8319792;28;20574;-76
2022/06/10 02:50:46;;;;;;;6.50;3.97;;;;;;;16.29;58.50;98490.19;8319772;28;20239;-76
2022/06/10 02:54:50;;;;;;;8.83;4.77;;;;;;;16.25;58.24;98497.38;8319602;28;20540;-76
2022/06/10 03:03:22;;;;;;;5.90;4.27;;;;;;;16.27;58.07;98499.91;8319315;28;20236;-76
2022/06/10 03:07:38;;;;;;;7.53;4.03;;;;;;;16.22;58.12;98508.00;8286396;28;20238;-75
2022/06/10 03:11:52;;;;;;;9.07;4.50;;;;;;;16.21;58.29;98515.00;8286560;28;20240;-76
2022/06/10 03:16:08;;;;;;;6.77;3.90;;;;;;;16.24;58.28;98521.84;8286431;28;20264;-76
2022/06/10 03:20:16;;;;;;;6.23;4.40;;;;;;;16.25;58.39;98507.00;8286037;28;20297;-76
2022/06/10 03:24:28;;;;;;;7.37;4.40;;;;;;;16.20;58.48;98507.25;8286117;28;20309;-76
2022/06/10 03:28:35;;;;;;;5.83;4.57;;;;;;;16.18;58.40;98509.97;8285777;28;20229;-76
2022/06/10 03:32:42;;;;;;;5.13;4.13;;;;;;;16.22;58.40;98516.69;8286103;28;20233;-76
2022/06/10 03:36:46;;;;;;;6.83;4.20;;;;;;;16.17;58.55;98526.56;8285777;28;20412;-76
2022/06/10 03:40:53;;;;;;;6.33;4.00;;;;;;;16.20;58.13;98526.41;8285615;28;20535;-76
2022/06/10 03:45:06;;;;;;;7.87;4.37;;;;;;;16.21;58.38;98527.25;8285663;28;20229;-76
2022/06/10 03:49:12;;;;;;;7.10;4.30;;;;;;;16.17;58.35;98537.03;8285449;28;20236;-76
2022/06/10 03:53:16;;;;;;;7.27;4.70;;;;;;;15.97;58.88;98537.31;8285351;28;20229;-76
2022/06/10 03:57:19;;;;;;;9.20;4.20;;;;;;;16.14;59.00;98546.81;8285170;28;20237;-76
2022/06/10 04:01:23;;;;;;;8.00;4.30;;;;;;;16.21;58.68;98550.75;8284787;28;20288;-76
2022/06/10 04:05:27;;;;;;;8.23;4.70;;;;;;;16.27;58.58;98555.63;8285087;28;20292;-76
2022/06/10 04:09:29;;;;;;;5.70;4.13;;;;;;;16.21;58.81;98554.19;8316940;28;20255;-77
2022/06/10 04:13:32;;;;;;;8.03;4.40;;;;;;;16.30;58.69;98562.47;8317352;28;20239;-76
2022/06/10 04:17:36;;;;;;;6.60;4.30;;;;;;;16.32;58.51;98566.66;8316986;28;20245;-76
2022/06/10 04:21:39;;;;;;;10.60;4.77;;;;;;;16.31;58.21;98571.97;8316994;28;20232;-76
2022/06/10 04:25:44;;;;;;;8.80;4.03;;;;;;;16.47;58.78;98569.28;8317074;28;20248;-76
2022/06/10 04:29:47;;;;;;;6.10;4.20;;;;;;;16.49;58.39;98575.28;8316679;28;20231;-76
2022/06/10 04:33:51;;;;;;;5.53;4.37;;;;;;;16.54;58.46;98573.22;8315630;28;20430;-76
2022/06/10 04:37:55;;;;;;;10.00;4.67;;;;;;;16.53;58.82;98580.25;8316437;28;20256;-76
2022/06/10 04:41:58;;;;;;;6.73;4.27;;;;;;;16.58;58.49;98587.78;8316220;28;20559;-75
2022/06/10 04:46:02;;;;;;;6.97;4.00;;;;;;;16.67;58.31;98591.66;8316131;28;20239;-74
2022/06/10 04:50:09;;;;;;;7.07;4.03;;;;;;;16.73;58.35;98594.72;8316020;28;20237;-75
2022/06/10 04:54:12;;;;;;;9.37;4.73;;;;;;;16.79;58.49;98588.28;8315909;28;20236;-75
2022/06/10 04:58:15;;;;;;;5.67;3.90;;;;;;;16.89;58.20;98597.31;8315807;28;20237;-75
2022/06/10 05:02:17;;;;;;;7.20;4.10;;;;;;;16.86;58.57;98600.13;8315723;28;20224;-75
2022/06/10 05:06:22;;;;;;;5.60;4.00;;;;;;;17.04;58.09;98600.78;8315591;28;20228;-75
2022/06/10 05:10:26;;;;;;;7.53;4.17;;;;;;;17.07;58.27;98597.97;8315171;28;20225;-74
2022/06/10 05:14:29;;;;;;;6.87;4.60;;;;;;;17.09;58.56;98600.50;8315415;28;20235;-75
2022/06/10 05:18:32;;;;;;;10.23;4.67;;;;;;;17.15;58.48;98605.34;8315413;28;20241;-74
2022/06/10 05:22:36;;;;;;;7.73;4.43;;;;;;;17.22;57.79;98597.97;8315257;28;20568;-75
2022/06/10 05:26:39;;;;;;;6.57;4.30;;;;;;;17.30;58.64;98608.81;8315122;28;20236;-74
2022/06/10 05:30:42;;;;;;;8.17;4.90;;;;;;;17.38;58.37;98617.88;8315163;28;20241;-74
2022/06/10 05:34:46;;;;;;;6.93;4.73;;;;;;;17.50;57.86;98620.69;8314991;28;20251;-74
2022/06/10 05:38:51;;;;;;;9.53;4.70;;;;;;;17.62;57.64;98619.91;8314807;28;20240;-74
2022/06/10 05:42:54;;;;;;;9.87;4.53;;;;;;;17.73;57.69;98624.47;8314758;28;20259;-74
2022/06/10 05:46:57;;;;;;;10.37;4.60;;;;;;;17.87;57.15;98627.06;8314323;28;20239;-75
2022/06/10 05:51:00;;;;;;;6.60;4.23;;;;;;;18.01;56.99;98631.44;8314704;28;20449;-75
2022/06/10 05:55:06;;;;;;;8.73;4.80;;;;;;;18.20;56.40;98632.84;8314494;28;20232;-75
2022/06/10 05:59:09;;;;;;;10.23;4.73;;;;;;;18.28;56.38;98631.44;8314433;28;20233;-75
2022/06/10 06:03:12;;;;;;;7.90;4.50;;;;;;;18.45;56.01;98634.72;8314564;28;20645;-75
2022/06/10 06:07:17;;;;;;;6.80;4.50;;;;;;;18.52;55.92;98644.72;8314524;28;20244;-75
2022/06/10 06:11:22;;;;;;;11.00;4.80;;;;;;;18.62;56.07;98641.47;8314395;28;20229;-76
2022/06/10 06:15:25;;;;;;;8.40;4.60;;;;;;;18.80;55.72;98640.28;8314058;28;20235;-75
2022/06/10 06:19:29;;;;;;;5.87;3.97;;;;;;;18.93;56.06;98642.91;8314231;28;20229;-75
2022/06/10 06:23:32;;;;;;;6.73;4.10;;;;;;;19.07;55.92;98641.97;8314080;28;20236;-75
2022/06/10 06:27:37;;;;;;;8.93;4.57;;;;;;;19.03;55.42;98649.22;8314189;28;20233;-75
2022/06/10 06:31:39;;;;;;;7.43;4.50;;;;;;;19.05;55.68;98647.31;8313824;28;20235;-80
2022/06/10 06:35:46;;;;;;;7.97;3.90;;;;;;;19.36;56.30;98650.44;8313724;28;20226;-77
2022/06/10 06:39:49;;;;;;;7.27;4.37;;;;;;;19.07;55.25;98649.84;8314010;28;20526;-76
2022/06/10 06:43:53;;;;;;;38.63;6.10;;;;;;;19.56;55.02;98654.31;8313887;28;20424;-78
2022/06/10 06:47:56;;;;;;;7.00;3.80;;;;;;;19.48;54.78;98654.84;8314118;28;20251;-74
2022/06/10 06:51:58;;;;;;;6.50;3.93;;;;;;;19.77;54.23;98649.38;8313813;28;20238;-75
2022/06/10 06:56:01;;;;;;;5.97;4.40;;;;;;;20.00;53.27;98657.38;8314148;28;20237;-76
2022/06/10 07:00:07;;;;;;;6.17;4.10;;;;;;;20.07;53.37;98654.22;8319545;28;20237;-76
2022/06/10 07:04:10;;;;;;;5.70;3.53;;;;;;;20.13;53.67;98652.94;8319448;28;20234;-79
2022/06/10 07:08:19;;;;;;;8.03;3.33;;;;;;;20.56;54.17;98656.81;8319267;28;20236;-76
2022/06/10 07:12:22;;;;;;;11.40;4.63;;;;;;;20.59;53.42;98652.16;8318176;28;20231;-76
2022/06/10 07:16:27;;;;;;;18.87;6.77;;;;;;;21.18;52.52;98663.56;8318654;28;20234;-78
2022/06/10 07:20:33;;;;;;;10.23;3.60;;;;;;;21.11;49.21;98662.34;8318740;28;20482;-74
2022/06/10 07:24:36;;;;;;;10.97;4.13;;;;;;;21.16;49.99;98662.84;8318756;28;20426;-78
2022/06/10 07:28:38;;;;;;;9.37;4.00;;;;;;;21.52;48.41;98661.00;8318863;28;20449;-81
2022/06/10 07:32:43;;;;;;;15.87;5.03;;;;;;;21.81;48.48;98658.69;8318482;28;20224;-78
2022/06/10 07:36:46;;;;;;;8.30;2.53;;;;;;;22.06;46.13;98663.63;8318411;28;20233;-75
2022/06/10 07:45:14;;;;;;;6.73;2.10;;;;;;;22.66;45.50;98660.59;8318175;28;20298;-76
2022/06/10 07:49:18;;;;;;;6.47;2.80;;;;;;;22.80;45.49;98657.63;8318027;28;20236;-76
2022/06/10 07:53:21;;;;;;;7.37;2.80;;;;;;;23.03;43.38;98652.25;8317852;28;20454;-76
2022/06/10 07:57:24;;;;;;;4.03;2.00;;;;;;;23.20;43.30;98648.16;8317392;28;20244;-75
2022/06/10 08:01:28;;;;;;;4.13;2.20;;;;;;;23.49;42.85;98648.28;8317823;28;20242;-75
2022/06/10 08:05:33;;;;;;;4.03;2.20;;;;;;;23.23;42.55;98654.03;8317644;28;20436;-75
2022/06/10 08:09:36;;;;;;;6.83;2.57;;;;;;;23.41;41.17;98656.88;8317301;28;20232;-76
2022/06/10 08:13:39;;;;;;;3.20;1.97;;;;;;;23.85;41.41;98643.41;8317422;28;20427;-75
2022/06/10 08:17:42;;;;;;;3.83;2.40;;;;;;;24.02;39.64;98654.31;8317221;28;20811;-76
2022/06/10 08:26:07;;;;;;;4.13;2.20;;;;;;;24.22;39.25;98644.56;8316925;28;20243;-76
2022/06/10 08:30:16;;;;;;;4.10;2.10;;;;;;;24.65;38.86;98646.84;8316809;28;20230;-76
2022/06/10 08:34:18;;;;;;;3.77;1.93;;;;;;;25.12;39.66;98638.94;8316736;28;20237;-76
2022/06/10 08:38:22;;;;;;;3.30;1.70;;;;;;;25.28;37.91;98642.81;8316474;28;20340;-76
2022/06/10 08:42:37;;;;;;;4.87;1.70;;;;;;;25.61;36.45;98646.75;8315928;28;20245;-76
2022/06/10 08:47:07;;;;;;;3.90;1.70;;;;;;;25.70;36.06;98643.22;8316428;28;20240;-76
2022/06/10 08:51:15;;;;;;;6.77;1.77;;;;;;;25.86;36.52;98641.72;8316082;28;20233;-76
2022/06/10 08:55:34;;;;;;;5.20;1.73;;;;;;;25.93;34.61;98641.00;8316027;28;20244;-76
2022/06/10 08:59:40;;;;;;;4.90;2.20;;;;;;;25.95;34.42;98646.16;8323952;28;20244;-75
2022/06/10 09:03:45;;;;;;;3.20;1.60;;;;;;;26.12;34.69;98641.84;8315895;28;20238;-76
2022/06/10 09:07:50;;;;;;;3.77;1.63;;;;;;;26.17;34.39;98642.22;8316385;28;20238;-76
2022/06/10 09:12:00;;;;;;;2.50;1.70;;;;;;;26.29;33.99;98633.06;8315617;28;20430;-76
2022/06/10 09:16:09;;;;;;;3.40;1.20;;;;;;;26.45;32.41;98632.38;8315421;28;20418;-76
2022/06/10 09:20:16;;;;;;;3.23;1.47;;;;;;;26.85;32.98;98641.69;8314819;28;20236;-76
2022/06/10 09:24:29;;;;;;;3.20;1.40;;;;;;;27.00;32.94;98641.13;8315367;28;20236;-76
2022/06/10 09:28:33;;;;;;;4.07;1.47;;;;;;;27.32;33.05;98635.16;8321772;28;20238;-76
2022/06/10 09:32:44;;;;;;;4.50;1.60;;;;;;;26.96;32.64;98642.41;8315212;28;20516;-76
2022/06/10 09:37:02;;;;;;;5.63;1.40;;;;;;;27.17;30.72;98634.91;8314936;28;20241;-76
2022/06/10 09:41:09;;;;;;;4.07;1.60;;;;;;;27.55;30.22;98645.25;8314567;28;20307;-76
2022/06/10 09:45:22;;;;;;;2.27;1.10;;;;;;;27.73;29.82;98637.19;8314784;28;20237;-76
2022/06/10 09:49:44;;;;;;;3.33;1.23;;;;;;;27.95;30.73;98644.59;8322197;28;20234;-76
2022/06/10 09:54:00;;;;;;;2.83;1.00;;;;;;;27.51;30.04;98639.41;8314688;28;20244;-76
2022/06/10 09:58:13;;;;;;;2.67;1.30;;;;;;;27.99;29.96;98631.81;8314616;28;20578;-76
2022/06/10 10:02:24;;;;;;;1.63;0.90;;;;;;;28.35;28.11;98634.16;8314645;28;20236;-76
2022/06/10 10:06:33;;;;;;;2.83;1.10;;;;;;;28.34;27.72;98632.50;8321549;28;20427;-76
2022/06/10 10:10:40;;;;;;;2.50;1.10;;;;;;;28.16;29.99;98630.81;8314415;28;20231;-76
2022/06/10 10:14:49;;;;;;;2.37;1.20;;;;;;;28.25;29.00;98634.31;8314395;28;20234;-76
2022/06/10 10:19:11;;;;;;;2.93;1.43;;;;;;;28.40;28.86;98630.00;8314250;28;20587;-76
2022/06/10 10:23:16;;;;;;;5.33;1.30;;;;;;;28.63;27.52;98622.19;8314188;28;20235;-76
2022/06/10 10:27:22;;;;;;;2.73;1.13;;;;;;;28.75;28.27;98622.72;8314104;28;20240;-76
2022/06/10 10:31:27;;;;;;;3.63;1.30;;;;;;;29.11;27.59;98622.31;8315418;28;20240;-76
2022/06/10 10:35:35;;;;;;;3.13;1.20;;;;;;;29.08;27.42;98624.50;8320438;28;20433;-76
2022/06/10 10:39:39;;;;;;;3.30;1.73;;;;;;;28.69;27.67;98623.34;8320245;28;20239;-76
2022/06/10 10:43:44;;;;;;;1.90;1.17;;;;;;;26.96;30.33;98626.44;8319938;28;20397;-76
2022/06/10 10:47:50;;;;;;;3.30;1.30;;;;;;;27.54;29.39;98627.63;8320072;28;20232;-76
2022/06/10 10:51:54;;;;;;;4.13;1.50;;;;;;;27.83;27.39;98630.69;8319905;28;20535;-76
2022/06/10 10:56:00;;;;;;;4.10;1.37;;;;;;;28.53;29.03;98618.88;8319739;28;20242;-76
2022/06/10 11:00:09;;;;;;;3.37;1.50;;;;;;;28.90;27.51;98608.69;8319402;28;20242;-76
2022/06/10 11:04:12;;;;;;;3.30;1.20;;;;;;;29.13;27.62;98614.16;8319539;28;20234;-77
2022/06/10 11:08:21;;;;;;;3.17;1.70;;;;;;;28.33;28.08;98614.84;8319402;28;20236;-76
2022/06/10 11:12:27;;;;;;;3.07;1.20;;;;;;;29.29;29.79;98607.94;8326717;28;20227;-76
2022/06/10 11:16:38;;;;;;;3.40;1.40;;;;;;;28.50;29.32;98611.19;8319165;28;20229;-75
2022/06/10 11:20:41;;;;;;;1.80;1.10;;;;;;;27.82;29.70;98615.75;8318924;28;20555;-76
2022/06/10 11:24:48;;;;;;;3.77;1.50;;;;;;;28.26;29.17;98618.19;8318988;28;20225;-76
2022/06/10 11:28:59;;;;;;;1.83;1.10;;;;;;;29.12;28.75;98604.47;8318734;28;20229;-76
2022/06/10 11:33:05;;;;;;;2.73;1.40;;;;;;;29.23;27.34;98607.63;8318634;28;20239;-77
2022/06/10 11:37:21;;;;;;;2.03;0.93;;;;;;;29.51;26.16;98604.53;8318583;28;20425;-76
2022/06/10 11:41:30;;;;;;;3.00;1.17;;;;;;;29.63;25.88;98604.97;8317344;28;20235;-75
2022/06/10 11:45:38;;;;;;;1.90;0.93;;;;;;;28.14;27.93;98597.34;8318324;28;20432;-76
2022/06/10 11:49:47;;;;;;;2.30;1.03;;;;;;;29.36;27.51;98596.41;8318179;28;20543;-76
2022/06/10 11:53:57;;;;;;;4.83;1.20;;;;;;;29.66;26.20;98595.78;8318162;28;20537;-76
2022/06/10 12:02:31;;;;;;;2.50;1.10;;;;;;;28.15;27.41;98588.38;8317395;28;20237;-76
2022/06/10 12:06:37;;;;;;;1.93;0.87;;;;;;;27.95;28.68;98586.03;8317636;28;20567;-76
2022/06/10 12:10:46;;;;;;;1.87;0.97;;;;;;;29.02;27.06;98580.69;8317520;28;20346;-76
2022/06/10 12:14:51;;;;;;;1.80;1.07;;;;;;;29.49;26.68;98581.69;8317377;28;20225;-77
2022/06/10 12:18:54;;;;;;;1.80;1.03;;;;;;;29.62;24.58;98574.78;8317193;28;20436;-76
2022/06/10 12:22:57;;;;;;;3.00;1.00;;;;;;;29.78;24.89;98571.22;8317142;28;20236;-76
2022/06/10 12:27:03;;;;;;;3.00;0.80;;;;;;;29.61;24.22;98566.97;8316850;28;20241;-76
2022/06/10 12:31:19;;;;;;;3.50;1.27;;;;;;;29.66;25.61;98577.91;8316859;28;20233;-77
2022/06/10 12:35:25;;;;;;;1.70;0.90;;;;;;;29.63;24.11;98572.94;8316371;28;20435;-76
2022/06/10 12:39:31;;;;;;;1.83;1.00;;;;;;;29.62;23.05;98565.94;8316338;28;20249;-76
2022/06/10 12:43:38;;;;;;;2.27;1.00;;;;;;;29.32;24.37;98565.75;8316370;28;20239;-76
2022/06/10 12:47:43;;;;;;;2.03;1.00;;;;;;;29.29;24.65;98567.94;8316325;28;20545;-76
2022/06/10 12:51:54;;;;;;;2.10;0.90;;;;;;;29.87;24.14;98558.63;8316378;28;20255;-76
2022/06/10 12:55:58;;;;;;;2.43;1.00;;;;;;;30.01;23.69;98567.72;8315276;28;20248;-76
2022/06/10 13:00:26;;;;;;;4.17;1.10;;;;;;;28.72;25.08;98566.25;8315854;28;20237;-76
2022/06/10 13:04:58;;;;;;;2.40;1.00;;;;;;;28.03;25.93;98554.09;8322529;28;20633;-76
2022/06/10 13:09:23;;;;;;;1.37;0.80;;;;;;;27.33;27.29;98556.25;8315680;28;20236;-77
2022/06/10 13:13:27;;;;;;;2.90;1.00;;;;;;;27.17;27.94;98560.47;8315289;28;20241;-76
2022/06/10 13:17:30;;;;;;;3.73;1.10;;;;;;;26.88;27.54;98560.81;8315435;28;20571;-76
2022/06/10 13:21:35;;;;;;;2.77;1.03;;;;;;;27.27;27.74;98547.09;8315221;28;20247;-76
2022/06/10 13:25:38;;;;;;;2.13;0.93;;;;;;;27.78;26.03;98539.91;8315369;28;20243;-76
2022/06/10 13:29:48;;;;;;;3.10;1.20;;;;;;;28.29;26.51;98531.78;8315147;28;20238;-76
2022/06/10 13:33:57;;;;;;;3.20;1.10;;;;;;;28.82;26.65;98529.56;8315135;28;20242;-76
2022/06/10 13:38:04;;;;;;;2.70;1.10;;;;;;;28.73;26.18;98528.78;8314998;28;20409;-76
2022/06/10 13:42:08;;;;;;;2.87;0.90;;;;;;;28.89;25.91;98533.22;8314722;28;20535;-77
2022/06/10 13:46:13;;;;;;;3.03;1.00;;;;;;;28.43;24.67;98525.78;8314870;28;20246;-76
2022/06/10 13:50:25;;;;;;;3.37;0.90;;;;;;;28.78;23.90;98529.06;8314770;28;20239;-77
2022/06/10 13:54:29;;;;;;;3.10;1.00;;;;;;;28.76;24.82;98527.59;8347191;28;20225;-76
2022/06/10 13:58:36;;;;;;;4.13;1.00;;;;;;;28.85;24.26;98521.25;8347342;28;20297;-76
2022/06/10 14:02:42;;;;;;;3.57;0.80;;;;;;;28.84;23.96;98522.22;8347235;28;20542;-76
2022/06/10 14:06:47;;;;;;;2.73;1.00;;;;;;;28.87;23.74;98518.41;8351247;28;20227;-76
2022/06/10 14:10:51;;;;;;;2.33;0.80;;;;;;;28.73;24.02;98517.25;8353940;28;20242;-76
2022/06/10 14:15:06;;;;;;;1.63;0.90;;;;;;;28.89;24.49;98508.41;8353876;28;20246;-76
2022/06/10 14:19:13;;;;;;;2.37;0.80;;;;;;;28.81;24.59;98503.94;8353648;28;20531;-76
2022/06/10 14:23:25;;;;;;;4.23;1.10;;;;;;;28.92;24.71;98505.38;8353547;28;20600;-76
2022/06/10 14:27:29;;;;;;;3.10;0.97;;;;;;;28.50;23.03;98512.63;8327730;28;20236;-76
2022/06/10 14:31:34;;;;;;;1.97;0.80;;;;;;;28.65;24.48;98505.66;8320570;28;20232;-76
2022/06/10 14:35:39;;;;;;;2.60;0.93;;;;;;;28.77;24.24;98505.25;8320406;28;20262;-76
2022/06/10 14:40:03;;;;;;;1.43;0.70;;;;;;;28.70;24.47;98509.63;8320371;28;20279;-76
2022/06/10 14:44:17;;;;;;;2.37;1.00;;;;;;;28.12;25.04;98512.34;8320018;28;20434;-76
2022/06/10 14:48:29;;;;;;;3.67;1.10;;;;;;;28.38;25.83;98509.47;8352461;28;20519;-76
2022/06/10 14:52:37;;;;;;;1.70;0.90;;;;;;;28.40;24.41;98504.81;8352645;28;20234;-76
2022/06/10 14:56:42;;;;;;;2.17;0.90;;;;;;;28.20;26.12;98509.69;8352625;28;20235;-76
2022/06/10 15:00:48;;;;;;;3.03;0.90;;;;;;;27.80;26.04;98492.69;8352444;28;20235;-76
2022/06/10 15:09:16;;;;;;;3.80;0.90;;;;;;;27.92;26.31;98495.03;8352095;28;20537;-76
2022/06/10 15:13:29;;;;;;;2.50;0.87;;;;;;;28.04;26.34;98491.84;8352057;28;20227;-76
2022/06/10 15:17:33;;;;;;;4.80;0.87;;;;;;;28.25;27.66;98494.03;8324778;28;20228;-75
2022/06/10 15:21:38;;;;;;;2.07;0.87;;;;;;;28.22;27.07;98496.19;8319074;28;20240;-76
2022/06/10 15:25:43;;;;;;;3.20;0.87;;;;;;;28.16;26.10;98480.88;8318849;28;20235;-76
2022/06/10 15:29:46;;;;;;;2.87;1.10;;;;;;;27.83;26.05;98491.50;8318808;28;20228;-75
2022/06/10 15:33:51;;;;;;;1.73;0.77;;;;;;;27.41;26.99;98484.47;8318683;28;20239;-76
2022/06/10 15:42:15;;;;;;;3.83;1.10;;;;;;;27.35;26.84;98482.47;8318189;28;20240;-76
2022/06/10 15:46:19;;;;;;;2.07;1.10;;;;;;;27.36;27.21;98479.66;8318244;28;20265;-76
2022/06/10 15:50:24;;;;;;;3.20;0.80;;;;;;;27.39;27.48;98481.13;8317828;28;20584;-75
2022/06/10 15:54:29;;;;;;;2.03;1.00;;;;;;;27.27;27.34;98480.63;8318098;28;20258;-75
2022/06/10 15:58:35;;;;;;;2.90;1.17;;;;;;;27.27;26.93;98485.94;8317793;28;20237;-75
2022/06/10 16:02:38;;;;;;;2.50;1.10;;;;;;;27.20;26.99;98477.72;8317583;28;20242;-76
2022/06/10 16:06:42;;;;;;;2.10;0.90;;;;;;;27.28;26.03;98484.91;8317675;28;20234;-75
2022/06/10 16:10:48;;;;;;;3.87;1.20;;;;;;;27.33;25.86;98481.78;8317472;28;20228;-76
2022/06/10 16:14:51;;;;;;;2.40;1.03;;;;;;;27.11;25.06;98471.56;8317375;28;20627;-75
2022/06/10 16:18:56;;;;;;;5.90;1.30;;;;;;;26.99;24.58;98472.84;8317103;28;20239;-75
2022/06/10 16:23:02;;;;;;;3.63;1.10;;;;;;;26.78;25.98;98486.53;8317017;28;20446;-76
2022/06/10 16:27:05;;;;;;;1.70;0.80;;;;;;;26.36;26.89;98481.13;8316964;28;20569;-76
2022/06/10 16:31:11;;;;;;;3.87;1.10;;;;;;;26.14;28.44;98489.44;8316708;28;20236;-76
2022/06/10 16:35:17;;;;;;;2.80;0.90;;;;;;;25.93;28.10;98484.47;8316647;28;20590;-76
2022/06/10 16:39:21;;;;;;;3.03;1.00;;;;;;;25.73;28.72;98481.09;8316426;28;20247;-76
2022/06/10 16:43:27;;;;;;;4.00;1.10;;;;;;;25.53;29.34;98476.91;8348777;28;20553;-75
2022/06/10 16:47:30;;;;;;;2.43;1.27;;;;;;;25.62;29.82;98472.53;8349054;28;20232;-75
2022/06/10 16:51:33;;;;;;;2.77;1.60;;;;;;;25.88;29.16;98477.91;8349014;28;20233;-75
2022/06/10 16:55:45;;;;;;;3.93;1.30;;;;;;;25.88;28.99;98468.13;8348784;28;20247;-76
2022/06/10 16:59:48;;;;;;;3.17;1.00;;;;;;;25.95;28.32;98468.41;8348737;28;20227;-76
2022/06/10 17:03:51;;;;;;;3.47;1.10;;;;;;;25.85;28.14;98473.72;8348644;28;20234;-76
2022/06/10 17:07:55;;;;;;;2.07;0.90;;;;;;;25.91;29.34;98464.34;8348643;28;20560;-76
2022/06/10 17:11:59;;;;;;;4.07;1.13;;;;;;;25.83;28.92;98461.63;8348467;28;20237;-76
2022/06/10 17:16:02;;;;;;;3.17;1.10;;;;;;;25.63;29.88;98466.28;8348319;28;20241;-76
2022/06/10 17:20:06;;;;;;;2.83;1.10;;;;;;;25.61;29.95;98461.09;8348174;28;20228;-76
2022/06/10 17:24:09;;;;;;;3.47;1.37;;;;;;;25.53;29.93;98472.47;8348060;28;20235;-76
2022/06/10 17:28:15;;;;;;;4.40;1.30;;;;;;;25.41;29.82;98462.22;8347986;28;20542;-75
2022/06/10 17:32:20;;;;;;;5.13;1.57;;;;;;;25.40;30.55;98465.84;8348112;28;20239;-76
2022/06/10 17:36:27;;;;;;;4.53;1.53;;;;;;;25.24;30.79;98469.16;8347481;28;20235;-75
2022/06/10 17:40:29;;;;;;;4.60;1.63;;;;;;;25.27;31.12;98468.88;8346983;28;20333;-75
2022/06/10 17:44:35;;;;;;;2.87;1.13;;;;;;;25.08;30.81;98477.75;8347390;28;20238;-75
2022/06/10 17:48:38;;;;;;;6.70;1.50;;;;;;;24.94;31.12;98463.16;8347261;28;20231;-75
2022/06/10 17:52:41;;;;;;;3.90;1.30;;;;;;;24.91;31.60;98464.31;8347462;28;20234;-76
2022/06/10 17:56:44;;;;;;;4.87;1.43;;;;;;;24.90;31.59;98467.09;8347410;28;20225;-75
2022/06/10 18:00:49;;;;;;;3.43;1.10;;;;;;;24.84;32.07;98471.16;8347382;28;20266;-75
2022/06/10 18:04:52;;;;;;;2.63;1.20;;;;;;;24.77;32.71;98475.41;8347198;28;20232;-75
2022/06/10 18:08:55;;;;;;;2.70;1.60;;;;;;;24.73;32.74;98477.50;8347207;28;20232;-76
2022/06/10 18:17:19;;;;;;;4.60;1.40;;;;;;;24.50;34.13;98478.78;8346758;28;20230;-76
2022/06/10 18:21:42;;;;;;;3.40;1.30;;;;;;;24.44;34.51;98482.84;8346643;28;20249;-75
2022/06/10 18:25:45;;;;;;;2.70;1.13;;;;;;;24.41;34.21;98483.16;8347080;28;20232;-75
2022/06/10 18:29:50;;;;;;;4.77;1.30;;;;;;;24.37;34.46;98482.59;8346665;28;20231;-76
2022/06/10 18:33:54;;;;;;;4.00;1.60;;;;;;;24.34;34.50;98471.47;8346573;28;20239;-76
2022/06/10 18:37:57;;;;;;;3.30;0.97;;;;;;;24.23;35.06;98483.03;8346794;28;20552;-76
2022/06/10 18:42:00;;;;;;;5.20;1.63;;;;;;;24.14;35.81;98481.22;8346525;28;20237;-75
2022/06/10 18:46:12;;;;;;;4.17;1.40;;;;;;;24.08;36.03;98484.44;8346595;28;20243;-76
2022/06/10 18:50:25;;;;;;;4.50;1.50;;;;;;;24.06;36.60;98481.09;8346498;28;20251;-76
2022/06/10 18:54:31;;;;;;;4.03;1.30;;;;;;;23.96;36.17;98476.66;8350893;28;20272;-75
2022/06/10 18:58:34;;;;;;;4.27;1.60;;;;;;;23.87;36.22;98487.25;8352753;28;20232;-75
2022/06/10 19:02:36;;;;;;;5.00;1.63;;;;;;;23.83;36.71;98494.63;8352293;28;20247;-75
2022/06/10 19:06:41;;;;;;;3.63;1.37;;;;;;;23.81;37.11;98496.56;8352344;28;20232;-76
2022/06/10 19:10:46;;;;;;;4.93;1.17;;;;;;;23.73;37.78;98493.75;8352303;28;20550;-75
2022/06/10 19:14:50;;;;;;;3.10;1.30;;;;;;;23.62;39.24;98497.38;8352068;28;20267;-75
2022/06/10 19:18:57;;;;;;;6.33;1.70;;;;;;;23.53;39.46;98496.41;8352013;28;20236;-75
2022/06/10 19:23:04;;;;;;;3.33;1.50;;;;;;;23.46;40.25;98497.91;8351748;28;20241;-76
2022/06/10 19:27:13;;;;;;;6.07;1.40;;;;;;;23.33;40.34;98500.81;8351686;28;20243;-76
2022/06/10 19:31:18;;;;;;;4.97;1.80;;;;;;;23.26;39.85;98507.59;8351658;28;20231;-76
2022/06/10 19:35:25;;;;;;;6.87;1.63;;;;;;;23.16;40.10;98514.66;8351529;28;20228;-76
2022/06/10 19:39:29;;;;;;;4.70;1.60;;;;;;;23.04;40.09;98524.50;8350942;28;20526;-75
2022/06/10 19:47:52;;;;;;;5.63;1.67;;;;;;;22.81;41.42;98534.38;8350836;28;20539;-76
2022/06/10 19:51:55;;;;;;;5.03;1.40;;;;;;;22.71;41.65;98541.41;8350857;28;20238;-75
2022/06/10 19:56:02;;;;;;;6.23;1.50;;;;;;;22.67;42.09;98543.47;8350884;28;20239;-76